sensor_id;sensor_type;location;lat;lon;timestamp;P1;durP1;ratioP1;P2;durP2;ratioP2
19032;SDS011;9649;51.042;13.804;2023-06-05T00:02:52;5.75;;;1.95;;
19032;SDS011;9649;51.042;13.804;2023-06-05T00:07:55;3.58;;;1.60;;
19032;SDS011;9649;51.042;13.804;2023-06-05T00:12:58;3.00;;;1.70;;
19032;SDS011;9649;51.042;13.804;2023-06-05T00:18:02;5.72;;;2.08;;
19032;SDS011;9649;51.042;13.804;2023-06-05T00:23:06;3.20;;;1.80;;
19032;SDS011;9649;51.042;13.804;2023-06-05T00:28:12;3.83;;;1.73;;
19032;SDS011;9649;51.042;13.804;2023-06-05T00:33:16;4.20;;;1.92;;
19032;SDS011;9649;51.042;13.804;2023-06-05T00:38:19;3.58;;;1.90;;
19032;SDS011;9649;51.042;13.804;2023-06-05T00:43:22;3.20;;;1.90;;
19032;SDS011;9649;51.042;13.804;2023-06-05T00:48:26;3.15;;;1.80;;
19032;SDS011;9649;51.042;13.804;2023-06-05T00:53:29;2.90;;;1.90;;
19032;SDS011;9649;51.042;13.804;2023-06-05T00:58:34;4.88;;;1.60;;
19032;SDS011;9649;51.042;13.804;2023-06-05T01:03:38;3.40;;;2.10;;
19032;SDS011;9649;51.042;13.804;2023-06-05T01:08:41;4.40;;;1.98;;
19032;SDS011;9649;51.042;13.804;2023-06-05T01:13:46;3.50;;;1.65;;
19032;SDS011;9649;51.042;13.804;2023-06-05T01:18:58;3.00;;;1.73;;
19032;SDS011;9649;51.042;13.804;2023-06-05T01:24:05;5.03;;;1.77;;
19032;SDS011;9649;51.042;13.804;2023-06-05T01:29:09;3.70;;;1.80;;
19032;SDS011;9649;51.042;13.804;2023-06-05T01:34:15;4.25;;;1.90;;
19032;SDS011;9649;51.042;13.804;2023-06-05T01:39:23;2.88;;;1.90;;
19032;SDS011;9649;51.042;13.804;2023-06-05T01:44:27;7.53;;;2.00;;
19032;SDS011;9649;51.042;13.804;2023-06-05T01:49:30;4.30;;;1.60;;
19032;SDS011;9649;51.042;13.804;2023-06-05T01:54:34;3.05;;;1.83;;
19032;SDS011;9649;51.042;13.804;2023-06-05T01:59:37;3.03;;;1.90;;
19032;SDS011;9649;51.042;13.804;2023-06-05T02:04:40;3.00;;;1.70;;
19032;SDS011;9649;51.042;13.804;2023-06-05T02:09:45;4.37;;;1.80;;
19032;SDS011;9649;51.042;13.804;2023-06-05T02:14:47;2.73;;;1.77;;
19032;SDS011;9649;51.042;13.804;2023-06-05T02:19:51;4.07;;;1.93;;
19032;SDS011;9649;51.042;13.804;2023-06-05T02:24:55;3.97;;;2.20;;
19032;SDS011;9649;51.042;13.804;2023-06-05T02:29:58;2.83;;;1.77;;
19032;SDS011;9649;51.042;13.804;2023-06-05T02:35:01;3.67;;;2.03;;
19032;SDS011;9649;51.042;13.804;2023-06-05T02:40:08;3.37;;;1.83;;
19032;SDS011;9649;51.042;13.804;2023-06-05T02:45:11;2.80;;;1.67;;
19032;SDS011;9649;51.042;13.804;2023-06-05T02:50:14;3.60;;;2.10;;
19032;SDS011;9649;51.042;13.804;2023-06-05T02:55:18;4.73;;;1.97;;
19032;SDS011;9649;51.042;13.804;2023-06-05T03:00:21;5.97;;;1.70;;
19032;SDS011;9649;51.042;13.804;2023-06-05T03:05:24;3.20;;;1.83;;
19032;SDS011;9649;51.042;13.804;2023-06-05T03:10:29;2.23;;;1.80;;
19032;SDS011;9649;51.042;13.804;2023-06-05T03:15:32;3.37;;;2.00;;
19032;SDS011;9649;51.042;13.804;2023-06-05T03:20:35;4.73;;;1.83;;
19032;SDS011;9649;51.042;13.804;2023-06-05T03:25:41;2.17;;;1.80;;
19032;SDS011;9649;51.042;13.804;2023-06-05T03:30:43;5.20;;;2.00;;
19032;SDS011;9649;51.042;13.804;2023-06-05T03:35:46;3.43;;;2.27;;
19032;SDS011;9649;51.042;13.804;2023-06-05T03:40:51;3.33;;;1.77;;
19032;SDS011;9649;51.042;13.804;2023-06-05T03:45:54;4.60;;;1.93;;
19032;SDS011;9649;51.042;13.804;2023-06-05T03:50:57;2.97;;;1.87;;
19032;SDS011;9649;51.042;13.804;2023-06-05T03:56:03;3.90;;;2.00;;
19032;SDS011;9649;51.042;13.804;2023-06-05T04:01:06;3.27;;;2.10;;
19032;SDS011;9649;51.042;13.804;2023-06-05T04:06:10;4.40;;;1.97;;
19032;SDS011;9649;51.042;13.804;2023-06-05T04:11:14;3.37;;;1.93;;
19032;SDS011;9649;51.042;13.804;2023-06-05T04:16:17;5.40;;;2.20;;
19032;SDS011;9649;51.042;13.804;2023-06-05T04:21:20;4.33;;;2.10;;
19032;SDS011;9649;51.042;13.804;2023-06-05T04:26:24;4.07;;;2.00;;
19032;SDS011;9649;51.042;13.804;2023-06-05T04:31:28;3.85;;;1.92;;
19032;SDS011;9649;51.042;13.804;2023-06-05T04:36:31;2.88;;;1.70;;
19032;SDS011;9649;51.042;13.804;2023-06-05T04:41:36;5.15;;;2.00;;
19032;SDS011;9649;51.042;13.804;2023-06-05T04:46:46;3.58;;;1.90;;
19032;SDS011;9649;51.042;13.804;2023-06-05T04:51:48;3.25;;;2.08;;
19032;SDS011;9649;51.042;13.804;2023-06-05T04:56:52;4.72;;;2.65;;
19032;SDS011;9649;51.042;13.804;2023-06-05T05:01:55;3.22;;;2.33;;
19032;SDS011;9649;51.042;13.804;2023-06-05T05:06:58;3.20;;;1.98;;
19032;SDS011;9649;51.042;13.804;2023-06-05T05:12:04;6.50;;;2.20;;
19032;SDS011;9649;51.042;13.804;2023-06-05T05:17:08;4.63;;;2.20;;
19032;SDS011;9649;51.042;13.804;2023-06-05T05:22:11;4.55;;;2.20;;
19032;SDS011;9649;51.042;13.804;2023-06-05T05:27:15;6.03;;;2.05;;
19032;SDS011;9649;51.042;13.804;2023-06-05T05:32:18;7.43;;;1.95;;
19032;SDS011;9649;51.042;13.804;2023-06-05T05:37:21;3.22;;;2.22;;
19032;SDS011;9649;51.042;13.804;2023-06-05T05:42:25;5.88;;;2.20;;
19032;SDS011;9649;51.042;13.804;2023-06-05T05:47:28;5.55;;;2.30;;
19032;SDS011;9649;51.042;13.804;2023-06-05T05:52:30;2.90;;;1.90;;
19032;SDS011;9649;51.042;13.804;2023-06-05T05:57:34;5.10;;;1.83;;
19032;SDS011;9649;51.042;13.804;2023-06-05T06:02:37;5.75;;;2.10;;
19032;SDS011;9649;51.042;13.804;2023-06-05T06:07:40;4.28;;;2.03;;
19032;SDS011;9649;51.042;13.804;2023-06-05T06:12:45;4.93;;;2.10;;
19032;SDS011;9649;51.042;13.804;2023-06-05T06:17:48;6.72;;;2.40;;
19032;SDS011;9649;51.042;13.804;2023-06-05T06:22:51;6.18;;;2.33;;
19032;SDS011;9649;51.042;13.804;2023-06-05T06:27:55;4.65;;;2.00;;
19032;SDS011;9649;51.042;13.804;2023-06-05T06:32:58;5.47;;;2.60;;
19032;SDS011;9649;51.042;13.804;2023-06-05T06:38:01;5.18;;;2.40;;
19032;SDS011;9649;51.042;13.804;2023-06-05T06:43:05;3.92;;;2.15;;
19032;SDS011;9649;51.042;13.804;2023-06-05T06:48:08;5.05;;;2.38;;
19032;SDS011;9649;51.042;13.804;2023-06-05T06:53:11;6.13;;;2.20;;
19032;SDS011;9649;51.042;13.804;2023-06-05T06:58:15;5.47;;;2.35;;
19032;SDS011;9649;51.042;13.804;2023-06-05T07:03:19;6.90;;;2.08;;
19032;SDS011;9649;51.042;13.804;2023-06-05T07:08:22;4.93;;;2.50;;
19032;SDS011;9649;51.042;13.804;2023-06-05T07:13:26;10.43;;;2.95;;
19032;SDS011;9649;51.042;13.804;2023-06-05T07:18:29;8.75;;;2.38;;
19032;SDS011;9649;51.042;13.804;2023-06-05T07:23:31;5.63;;;2.35;;
19032;SDS011;9649;51.042;13.804;2023-06-05T07:28:36;8.20;;;2.60;;
19032;SDS011;9649;51.042;13.804;2023-06-05T07:33:38;3.58;;;2.20;;
19032;SDS011;9649;51.042;13.804;2023-06-05T07:38:42;4.22;;;2.45;;
19032;SDS011;9649;51.042;13.804;2023-06-05T07:43:46;3.20;;;2.20;;
19032;SDS011;9649;51.042;13.804;2023-06-05T07:48:49;6.18;;;2.50;;
19032;SDS011;9649;51.042;13.804;2023-06-05T07:53:52;6.95;;;2.28;;
19032;SDS011;9649;51.042;13.804;2023-06-05T07:58:56;4.88;;;2.42;;
19032;SDS011;9649;51.042;13.804;2023-06-05T08:03:58;5.75;;;2.33;;
19032;SDS011;9649;51.042;13.804;2023-06-05T08:09:01;3.35;;;2.22;;
19032;SDS011;9649;51.042;13.804;2023-06-05T08:14:06;4.93;;;2.20;;
19032;SDS011;9649;51.042;13.804;2023-06-05T08:19:09;6.63;;;2.20;;
19032;SDS011;9649;51.042;13.804;2023-06-05T08:24:11;6.00;;;2.50;;
19032;SDS011;9649;51.042;13.804;2023-06-05T08:29:15;4.40;;;2.38;;
19032;SDS011;9649;51.042;13.804;2023-06-05T08:34:18;9.00;;;2.50;;
19032;SDS011;9649;51.042;13.804;2023-06-05T08:39:22;7.07;;;2.60;;
19032;SDS011;9649;51.042;13.804;2023-06-05T08:44:27;8.13;;;2.30;;
19032;SDS011;9649;51.042;13.804;2023-06-05T08:49:30;5.32;;;2.17;;
19032;SDS011;9649;51.042;13.804;2023-06-05T08:54:37;5.05;;;2.25;;
19032;SDS011;9649;51.042;13.804;2023-06-05T08:59:42;6.20;;;2.25;;
19032;SDS011;9649;51.042;13.804;2023-06-05T09:04:46;7.03;;;2.33;;
19032;SDS011;9649;51.042;13.804;2023-06-05T09:09:51;16.20;;;3.10;;
19032;SDS011;9649;51.042;13.804;2023-06-05T09:14:55;5.82;;;2.58;;
19032;SDS011;9649;51.042;13.804;2023-06-05T09:19:58;6.85;;;2.33;;
19032;SDS011;9649;51.042;13.804;2023-06-05T09:25:02;6.45;;;2.30;;
19032;SDS011;9649;51.042;13.804;2023-06-05T09:30:07;9.18;;;2.47;;
19032;SDS011;9649;51.042;13.804;2023-06-05T09:35:12;5.55;;;2.55;;
19032;SDS011;9649;51.042;13.804;2023-06-05T09:40:21;7.40;;;2.80;;
19032;SDS011;9649;51.042;13.804;2023-06-05T09:45:43;6.25;;;2.60;;
19032;SDS011;9649;51.042;13.804;2023-06-05T09:50:46;6.15;;;2.45;;
19032;SDS011;9649;51.042;13.804;2023-06-05T09:55:49;3.45;;;2.20;;
19032;SDS011;9649;51.042;13.804;2023-06-05T10:00:53;5.95;;;2.63;;
19032;SDS011;9649;51.042;13.804;2023-06-05T10:06:02;4.80;;;2.10;;
19032;SDS011;9649;51.042;13.804;2023-06-05T10:11:07;5.57;;;2.90;;
19032;SDS011;9649;51.042;13.804;2023-06-05T10:16:13;6.45;;;2.67;;
19032;SDS011;9649;51.042;13.804;2023-06-05T10:21:27;3.97;;;1.95;;
19032;SDS011;9649;51.042;13.804;2023-06-05T10:32:22;5.15;;;1.80;;
19032;SDS011;9649;51.042;13.804;2023-06-05T10:37:39;2.47;;;1.90;;
19032;SDS011;9649;51.042;13.804;2023-06-05T10:42:50;2.88;;;1.83;;
19032;SDS011;9649;51.042;13.804;2023-06-05T10:47:55;2.22;;;1.83;;
19032;SDS011;9649;51.042;13.804;2023-06-05T10:52:58;5.82;;;1.83;;
19032;SDS011;9649;51.042;13.804;2023-06-05T10:58:01;4.03;;;2.08;;
19032;SDS011;9649;51.042;13.804;2023-06-05T11:03:06;2.53;;;2.17;;
19032;SDS011;9649;51.042;13.804;2023-06-05T11:08:10;3.40;;;2.10;;
19032;SDS011;9649;51.042;13.804;2023-06-05T11:13:15;5.45;;;2.08;;
19032;SDS011;9649;51.042;13.804;2023-06-05T11:18:29;3.33;;;1.88;;
19032;SDS011;9649;51.042;13.804;2023-06-05T11:23:34;5.50;;;2.30;;
19032;SDS011;9649;51.042;13.804;2023-06-05T11:28:37;11.23;;;2.55;;
19032;SDS011;9649;51.042;13.804;2023-06-05T11:33:43;5.90;;;2.10;;
19032;SDS011;9649;51.042;13.804;2023-06-05T11:38:51;4.85;;;1.77;;
19032;SDS011;9649;51.042;13.804;2023-06-05T11:43:55;2.55;;;2.10;;
19032;SDS011;9649;51.042;13.804;2023-06-05T11:48:59;5.10;;;2.10;;
19032;SDS011;9649;51.042;13.804;2023-06-05T11:54:02;7.53;;;2.05;;
19032;SDS011;9649;51.042;13.804;2023-06-05T11:59:08;3.63;;;2.25;;
19032;SDS011;9649;51.042;13.804;2023-06-05T12:04:12;2.58;;;1.85;;
19032;SDS011;9649;51.042;13.804;2023-06-05T12:09:17;3.72;;;2.05;;
19032;SDS011;9649;51.042;13.804;2023-06-05T12:14:28;6.97;;;2.10;;
19032;SDS011;9649;51.042;13.804;2023-06-05T12:19:34;3.85;;;2.03;;
19032;SDS011;9649;51.042;13.804;2023-06-05T12:24:37;3.53;;;2.03;;
19032;SDS011;9649;51.042;13.804;2023-06-05T12:29:51;2.10;;;1.90;;
19032;SDS011;9649;51.042;13.804;2023-06-05T12:34:57;3.28;;;2.20;;
19032;SDS011;9649;51.042;13.804;2023-06-05T12:40:09;4.20;;;2.03;;
19032;SDS011;9649;51.042;13.804;2023-06-05T12:45:13;4.88;;;2.30;;
19032;SDS011;9649;51.042;13.804;2023-06-05T12:50:18;5.82;;;2.03;;
19032;SDS011;9649;51.042;13.804;2023-06-05T12:55:22;2.55;;;2.08;;
19032;SDS011;9649;51.042;13.804;2023-06-05T13:00:25;8.00;;;2.15;;
19032;SDS011;9649;51.042;13.804;2023-06-05T13:05:29;3.22;;;2.00;;
19032;SDS011;9649;51.042;13.804;2023-06-05T13:10:32;7.25;;;2.47;;
19032;SDS011;9649;51.042;13.804;2023-06-05T13:15:36;5.25;;;2.00;;
19032;SDS011;9649;51.042;13.804;2023-06-05T13:20:41;10.15;;;2.47;;
19032;SDS011;9649;51.042;13.804;2023-06-05T13:25:44;5.40;;;2.30;;
19032;SDS011;9649;51.042;13.804;2023-06-05T13:30:47;2.22;;;2.03;;
19032;SDS011;9649;51.042;13.804;2023-06-05T13:35:51;4.05;;;2.25;;
19032;SDS011;9649;51.042;13.804;2023-06-05T13:40:54;4.70;;;2.60;;
19032;SDS011;9649;51.042;13.804;2023-06-05T13:45:57;3.00;;;2.08;;
19032;SDS011;9649;51.042;13.804;2023-06-05T13:51:02;5.50;;;2.00;;
19032;SDS011;9649;51.042;13.804;2023-06-05T13:56:05;3.63;;;1.92;;
19032;SDS011;9649;51.042;13.804;2023-06-05T14:01:09;9.77;;;2.60;;
19032;SDS011;9649;51.042;13.804;2023-06-05T14:06:13;3.72;;;2.35;;
19032;SDS011;9649;51.042;13.804;2023-06-05T14:11:16;7.72;;;2.63;;
19032;SDS011;9649;51.042;13.804;2023-06-05T14:16:19;9.35;;;2.33;;
19032;SDS011;9649;51.042;13.804;2023-06-05T14:21:24;4.30;;;2.70;;
19032;SDS011;9649;51.042;13.804;2023-06-05T14:26:27;5.25;;;2.28;;
19032;SDS011;9649;51.042;13.804;2023-06-05T14:31:32;5.45;;;3.00;;
19032;SDS011;9649;51.042;13.804;2023-06-05T14:36:36;6.78;;;2.65;;
19032;SDS011;9649;51.042;13.804;2023-06-05T14:41:39;2.90;;;2.20;;
19032;SDS011;9649;51.042;13.804;2023-06-05T14:46:41;6.50;;;2.35;;
19032;SDS011;9649;51.042;13.804;2023-06-05T14:51:47;4.07;;;2.33;;
19032;SDS011;9649;51.042;13.804;2023-06-05T14:56:50;7.30;;;2.60;;
19032;SDS011;9649;51.042;13.804;2023-06-05T15:01:53;4.97;;;2.20;;
19032;SDS011;9649;51.042;13.804;2023-06-05T15:06:57;3.95;;;2.10;;
19032;SDS011;9649;51.042;13.804;2023-06-05T15:12:00;4.65;;;2.40;;
19032;SDS011;9649;51.042;13.804;2023-06-05T15:17:04;7.38;;;2.40;;
19032;SDS011;9649;51.042;13.804;2023-06-05T15:22:09;6.13;;;2.42;;
19032;SDS011;9649;51.042;13.804;2023-06-05T15:27:11;7.78;;;2.47;;
19032;SDS011;9649;51.042;13.804;2023-06-05T15:32:14;3.67;;;2.28;;
19032;SDS011;9649;51.042;13.804;2023-06-05T15:37:22;7.93;;;2.35;;
19032;SDS011;9649;51.042;13.804;2023-06-05T15:42:29;5.45;;;2.08;;
19032;SDS011;9649;51.042;13.804;2023-06-05T15:47:35;4.82;;;2.67;;
19032;SDS011;9649;51.042;13.804;2023-06-05T15:52:40;7.28;;;2.58;;
19032;SDS011;9649;51.042;13.804;2023-06-05T15:57:43;6.80;;;2.42;;
19032;SDS011;9649;51.042;13.804;2023-06-05T16:02:49;6.35;;;2.35;;
19032;SDS011;9649;51.042;13.804;2023-06-05T16:07:54;4.68;;;2.30;;
19032;SDS011;9649;51.042;13.804;2023-06-05T16:12:57;4.60;;;2.25;;
19032;SDS011;9649;51.042;13.804;2023-06-05T16:18:00;5.63;;;2.15;;
19032;SDS011;9649;51.042;13.804;2023-06-05T16:23:04;7.55;;;2.63;;
19032;SDS011;9649;51.042;13.804;2023-06-05T16:28:10;8.43;;;2.70;;
19032;SDS011;9649;51.042;13.804;2023-06-05T16:33:13;5.57;;;2.28;;
19032;SDS011;9649;51.042;13.804;2023-06-05T16:38:17;5.90;;;2.50;;
19032;SDS011;9649;51.042;13.804;2023-06-05T16:43:20;11.90;;;2.80;;
19032;SDS011;9649;51.042;13.804;2023-06-05T16:48:23;6.75;;;2.80;;
19032;SDS011;9649;51.042;13.804;2023-06-05T16:53:27;8.07;;;3.03;;
19032;SDS011;9649;51.042;13.804;2023-06-05T16:58:30;9.15;;;3.80;;
19032;SDS011;9649;51.042;13.804;2023-06-05T17:03:33;4.10;;;2.67;;
19032;SDS011;9649;51.042;13.804;2023-06-05T17:08:37;12.25;;;3.03;;
19032;SDS011;9649;51.042;13.804;2023-06-05T17:13:41;13.40;;;4.00;;
19032;SDS011;9649;51.042;13.804;2023-06-05T17:18:43;11.05;;;3.75;;
19032;SDS011;9649;51.042;13.804;2023-06-05T17:23:48;6.18;;;3.22;;
19032;SDS011;9649;51.042;13.804;2023-06-05T17:28:51;6.50;;;3.88;;
19032;SDS011;9649;51.042;13.804;2023-06-05T17:33:58;9.68;;;3.95;;
19032;SDS011;9649;51.042;13.804;2023-06-05T17:39:03;5.22;;;3.40;;
19032;SDS011;9649;51.042;13.804;2023-06-05T17:44:05;12.57;;;4.00;;
19032;SDS011;9649;51.042;13.804;2023-06-05T17:49:08;9.27;;;3.47;;
19032;SDS011;9649;51.042;13.804;2023-06-05T17:54:13;7.10;;;3.00;;
19032;SDS011;9649;51.042;13.804;2023-06-05T17:59:16;8.32;;;3.58;;
19032;SDS011;9649;51.042;13.804;2023-06-05T18:04:19;7.43;;;3.47;;
19032;SDS011;9649;51.042;13.804;2023-06-05T18:09:23;6.80;;;3.80;;
19032;SDS011;9649;51.042;13.804;2023-06-05T18:14:27;9.75;;;3.25;;
19032;SDS011;9649;51.042;13.804;2023-06-05T18:19:29;6.88;;;3.38;;
19032;SDS011;9649;51.042;13.804;2023-06-05T18:24:33;7.80;;;3.50;;
19032;SDS011;9649;51.042;13.804;2023-06-05T18:29:36;8.98;;;3.33;;
19032;SDS011;9649;51.042;13.804;2023-06-05T18:34:39;6.90;;;3.47;;
19032;SDS011;9649;51.042;13.804;2023-06-05T18:39:43;6.38;;;3.80;;
19032;SDS011;9649;51.042;13.804;2023-06-05T18:44:46;5.95;;;3.55;;
19032;SDS011;9649;51.042;13.804;2023-06-05T18:49:49;8.50;;;3.20;;
19032;SDS011;9649;51.042;13.804;2023-06-05T18:54:53;6.88;;;3.55;;
19032;SDS011;9649;51.042;13.804;2023-06-05T18:59:55;11.02;;;4.00;;
19032;SDS011;9649;51.042;13.804;2023-06-05T19:04:58;5.80;;;3.47;;
19032;SDS011;9649;51.042;13.804;2023-06-05T19:10:03;7.22;;;3.70;;
19032;SDS011;9649;51.042;13.804;2023-06-05T19:15:07;7.47;;;3.65;;
19032;SDS011;9649;51.042;13.804;2023-06-05T19:20:10;5.82;;;3.47;;
19032;SDS011;9649;51.042;13.804;2023-06-05T19:25:14;4.60;;;3.60;;
19032;SDS011;9649;51.042;13.804;2023-06-05T19:30:17;7.25;;;3.80;;
19032;SDS011;9649;51.042;13.804;2023-06-05T19:35:20;8.20;;;3.70;;
19032;SDS011;9649;51.042;13.804;2023-06-05T19:40:25;5.53;;;3.55;;
19032;SDS011;9649;51.042;13.804;2023-06-05T19:45:28;8.75;;;3.60;;
19032;SDS011;9649;51.042;13.804;2023-06-05T19:50:30;6.85;;;3.53;;
19032;SDS011;9649;51.042;13.804;2023-06-05T19:55:38;6.22;;;3.60;;
19032;SDS011;9649;51.042;13.804;2023-06-05T20:00:41;11.48;;;3.88;;
19032;SDS011;9649;51.042;13.804;2023-06-05T20:05:44;6.57;;;3.90;;
19032;SDS011;9649;51.042;13.804;2023-06-05T20:10:48;5.78;;;3.17;;
19032;SDS011;9649;51.042;13.804;2023-06-05T20:15:51;6.00;;;3.50;;
19032;SDS011;9649;51.042;13.804;2023-06-05T20:20:55;6.15;;;3.97;;
19032;SDS011;9649;51.042;13.804;2023-06-05T20:25:59;6.68;;;3.30;;
19032;SDS011;9649;51.042;13.804;2023-06-05T20:31:02;6.53;;;3.38;;
19032;SDS011;9649;51.042;13.804;2023-06-05T20:36:05;5.60;;;3.28;;
19032;SDS011;9649;51.042;13.804;2023-06-05T20:41:12;7.03;;;3.42;;
19032;SDS011;9649;51.042;13.804;2023-06-05T20:46:15;6.18;;;3.10;;
19032;SDS011;9649;51.042;13.804;2023-06-05T20:51:22;8.02;;;3.75;;
19032;SDS011;9649;51.042;13.804;2023-06-05T20:56:30;6.72;;;3.63;;
19032;SDS011;9649;51.042;13.804;2023-06-05T21:01:32;7.50;;;4.05;;
19032;SDS011;9649;51.042;13.804;2023-06-05T21:06:37;5.95;;;3.53;;
19032;SDS011;9649;51.042;13.804;2023-06-05T21:11:41;6.25;;;4.55;;
19032;SDS011;9649;51.042;13.804;2023-06-05T21:16:44;4.25;;;3.50;;
19032;SDS011;9649;51.042;13.804;2023-06-05T21:21:47;4.72;;;3.58;;
19032;SDS011;9649;51.042;13.804;2023-06-05T21:26:51;7.63;;;4.00;;
19032;SDS011;9649;51.042;13.804;2023-06-05T21:31:54;6.72;;;3.63;;
19032;SDS011;9649;51.042;13.804;2023-06-05T21:36:56;6.57;;;4.05;;
19032;SDS011;9649;51.042;13.804;2023-06-05T21:42:07;6.07;;;4.13;;
19032;SDS011;9649;51.042;13.804;2023-06-05T21:47:15;5.60;;;3.33;;
19032;SDS011;9649;51.042;13.804;2023-06-05T21:52:21;5.60;;;3.50;;
19032;SDS011;9649;51.042;13.804;2023-06-05T21:57:25;6.53;;;3.40;;
19032;SDS011;9649;51.042;13.804;2023-06-05T22:02:28;5.72;;;4.05;;
19032;SDS011;9649;51.042;13.804;2023-06-05T22:07:31;6.88;;;4.22;;
19032;SDS011;9649;51.042;13.804;2023-06-05T22:12:37;6.57;;;4.35;;
19032;SDS011;9649;51.042;13.804;2023-06-05T22:17:43;8.10;;;4.13;;
19032;SDS011;9649;51.042;13.804;2023-06-05T22:22:48;6.95;;;4.72;;
19032;SDS011;9649;51.042;13.804;2023-06-05T22:27:54;6.68;;;4.32;;
19032;SDS011;9649;51.042;13.804;2023-06-05T22:32:57;6.63;;;4.25;;
19032;SDS011;9649;51.042;13.804;2023-06-05T22:38:01;5.22;;;3.95;;
19032;SDS011;9649;51.042;13.804;2023-06-05T22:43:05;7.60;;;3.47;;
19032;SDS011;9649;51.042;13.804;2023-06-05T22:48:08;7.13;;;3.63;;
19032;SDS011;9649;51.042;13.804;2023-06-05T22:53:13;6.22;;;3.20;;
19032;SDS011;9649;51.042;13.804;2023-06-05T22:58:19;4.18;;;3.35;;
19032;SDS011;9649;51.042;13.804;2023-06-05T23:03:22;5.63;;;3.30;;
19032;SDS011;9649;51.042;13.804;2023-06-05T23:08:38;5.57;;;3.40;;
19032;SDS011;9649;51.042;13.804;2023-06-05T23:13:46;6.07;;;3.60;;
19032;SDS011;9649;51.042;13.804;2023-06-05T23:18:49;7.13;;;3.90;;
19032;SDS011;9649;51.042;13.804;2023-06-05T23:23:53;6.63;;;4.20;;
19032;SDS011;9649;51.042;13.804;2023-06-05T23:28:57;6.97;;;4.43;;
19032;SDS011;9649;51.042;13.804;2023-06-05T23:34:05;8.00;;;4.68;;
19032;SDS011;9649;51.042;13.804;2023-06-05T23:39:12;5.90;;;4.15;;
19032;SDS011;9649;51.042;13.804;2023-06-05T23:44:25;5.05;;;4.10;;
19032;SDS011;9649;51.042;13.804;2023-06-05T23:49:30;5.85;;;4.15;;
19032;SDS011;9649;51.042;13.804;2023-06-05T23:54:33;6.40;;;4.35;;
19032;SDS011;9649;51.042;13.804;2023-06-05T23:59:39;7.18;;;4.68;;
